Time;durP1;ratioP1;P1;durP2;ratioP2;P2;SDS_P1;SDS_P2;PMS_P1;PMS_P2;Temp;Humidity;BMP_temperature;BMP_pressure;BME280_temperature;BME280_humidity;BME280_pressure;Samples;Min_cycle;Max_cycle;Signal;HPM_P1;HPM_P2
2022/09/12 00:01:22;;;;;;;0.35;0.30;;;11.70;99.90;;;;;;5034954;28;20042;-74
2022/09/12 00:03:54;;;;;;;0.25;0.20;;;11.70;99.90;;;;;;5034621;28;20064;-74
2022/09/12 00:06:25;;;;;;;0.30;0.30;;;11.60;99.90;;;;;;5035073;28;20060;-74
2022/09/12 00:08:54;;;;;;;0.17;0.17;;;11.60;99.90;;;;;;5034210;28;20049;-74
2022/09/12 00:11:20;;;;;;;0.00;0.00;;;11.50;99.90;;;;;;5034402;28;20110;-74
2022/09/12 00:13:46;;;;;;;0.00;0.00;;;11.70;99.90;;;;;;5034523;28;20106;-74
2022/09/12 00:16:21;;;;;;;0.10;0.10;;;11.30;99.90;;;;;;5034499;28;20112;-75
2022/09/12 00:18:47;;;;;;;0.20;0.20;;;11.30;99.90;;;;;;5034285;28;20072;-74
2022/09/12 00:21:13;;;;;;;0.22;0.10;;;11.30;99.90;;;;;;5034100;28;20045;-74
2022/09/12 00:23:39;;;;;;;0.32;0.32;;;11.30;99.90;;;;;;5034345;28;20052;-74
2022/09/12 00:26:06;;;;;;;0.68;0.13;;;11.30;99.90;;;;;;5034722;28;20041;-73
2022/09/12 00:28:37;;;;;;;0.43;0.38;;;11.20;99.90;;;;;;5034766;28;20072;-74
2022/09/12 00:31:08;;;;;;;0.45;0.45;;;11.20;99.90;;;;;;5034672;28;20048;-74
2022/09/12 00:33:34;;;;;;;0.28;0.28;;;11.20;99.90;;;;;;5034171;28;20546;-74
2022/09/12 00:36:05;;;;;;;0.45;0.43;;;11.20;99.90;;;;;;5034121;28;20053;-74
2022/09/12 00:38:31;;;;;;;0.10;0.10;;;11.10;99.90;;;;;;5034623;28;20087;-74
2022/09/12 00:40:56;;;;;;;0.32;0.30;;;11.10;99.90;;;;;;5035084;28;20045;-74
2022/09/12 00:43:41;;;;;;;0.40;0.28;;;11.10;99.90;;;;;;5035065;28;20478;-74
2022/09/12 00:46:27;;;;;;;0.20;0.20;;;11.10;99.90;;;;;;5034766;28;20045;-74
2022/09/12 00:49:04;;;;;;;0.80;0.45;;;11.10;99.90;;;;;;5034625;28;20492;-74
2022/09/12 00:51:31;;;;;;;2.08;0.68;;;11.20;99.90;;;;;;5034761;28;20041;-74
2022/09/12 00:53:59;;;;;;;0.08;0.08;;;11.20;99.90;;;;;;5034565;28;20087;-74
2022/09/12 00:56:26;;;;;;;0.38;0.22;;;12.20;99.90;;;;;;5034379;28;20041;-74
2022/09/12 00:59:09;;;;;;;0.55;0.50;;;11.10;99.90;;;;;;5034763;28;20085;-74
2022/09/12 01:01:35;;;;;;;0.38;0.30;;;11.10;99.90;;;;;;5035114;28;20096;-74
2022/09/12 01:04:02;;;;;;;1.50;0.43;;;11.00;99.90;;;;;;5034943;28;20129;-74
2022/09/12 01:06:36;;;;;;;0.00;0.00;;;11.10;99.90;;;;;;5034232;28;20038;-74
2022/09/12 01:09:03;;;;;;;0.70;0.70;;;11.00;99.90;;;;;;5033710;28;20399;-74
2022/09/12 01:11:35;;;;;;;0.00;0.00;;;11.00;99.90;;;;;;5033626;28;20045;-74
2022/09/12 01:14:01;;;;;;;0.05;0.05;;;11.00;99.90;;;;;;5033396;28;20125;-74
2022/09/12 01:16:27;;;;;;;0.38;0.03;;;10.90;99.90;;;;;;5033347;28;20120;-74
2022/09/12 01:19:11;;;;;;;0.35;0.05;;;10.80;99.90;;;;;;5033858;28;20037;-74
2022/09/12 01:22:27;;;;;;;0.10;0.10;;;10.80;99.90;;;;;;5033553;28;20046;-75
2022/09/12 01:25:24;;;;;;;0.10;0.10;;;10.70;99.90;;;;;;4999684;28;20057;-74
2022/09/12 01:28:05;;;;;;;0.20;0.20;;;10.80;99.90;;;;;;5034071;28;20088;-74
2022/09/12 01:30:47;;;;;;;0.08;0.08;;;10.70;99.90;;;;;;5034486;28;20076;-74
2022/09/12 01:33:27;;;;;;;3.70;0.40;;;10.70;99.90;;;;;;5034908;28;20041;-74
2022/09/12 01:36:07;;;;;;;0.22;0.20;;;10.70;99.90;;;;;;5034681;28;20037;-74
2022/09/12 01:38:58;;;;;;;0.32;0.32;;;10.80;99.90;;;;;;5034917;28;20176;-74
2022/09/12 01:41:48;;;;;;;0.35;0.13;;;10.70;99.90;;;;;;5035038;28;20156;-74
2022/09/12 01:44:38;;;;;;;0.00;0.00;;;10.60;99.90;;;;;;5034819;28;20400;-74
2022/09/12 01:47:31;;;;;;;0.20;0.20;;;10.50;99.90;;;;;;5034133;28;20044;-74
2022/09/12 01:50:08;;;;;;;0.00;0.00;;;10.50;99.90;;;;;;5036438;28;20411;-74
2022/09/12 01:52:46;;;;;;;0.00;0.00;;;10.50;99.90;;;;;;5038774;28;20041;-74
2022/09/12 01:55:17;;;;;;;1.45;0.32;;;10.50;99.90;;;;;;5038652;28;20081;-74
2022/09/12 01:57:49;;;;;;;0.10;0.10;;;10.60;99.90;;;;;;5037818;28;20061;-73
2022/09/12 02:00:15;;;;;;;0.60;0.55;;;10.60;99.90;;;;;;5037916;28;20060;-74
2022/09/12 02:02:50;;;;;;;1.85;0.38;;;10.60;99.90;;;;;;5037638;28;20041;-74
2022/09/12 02:05:37;;;;;;;0.20;0.20;;;10.50;99.90;;;;;;5037357;28;20416;-74
2022/09/12 02:08:12;;;;;;;0.70;0.22;;;10.50;99.90;;;;;;5037612;28;20639;-73
2022/09/12 02:10:48;;;;;;;0.10;0.10;;;10.50;99.90;;;;;;5038013;28;20045;-73
2022/09/12 02:13:24;;;;;;;0.00;0.00;;;10.60;99.90;;;;;;5038894;28;20080;-74
2022/09/12 02:15:58;;;;;;;0.10;0.10;;;10.60;99.90;;;;;;5037550;28;20810;-74
2022/09/12 02:18:27;;;;;;;0.20;0.20;;;10.60;99.90;;;;;;5036960;28;20046;-74
2022/09/12 02:20:55;;;;;;;0.00;0.00;;;10.60;99.90;;;;;;5037298;28;20515;-73
2022/09/12 02:23:27;;;;;;;0.00;0.00;;;10.60;99.90;;;;;;5020038;28;20044;-74
2022/09/12 02:26:04;;;;;;;0.00;0.00;;;10.50;99.90;;;;;;5037511;28;20415;-74
2022/09/12 02:28:34;;;;;;;0.00;0.00;;;10.50;99.90;;;;;;5037313;28;20049;-74
2022/09/12 02:31:32;;;;;;;0.00;0.00;;;10.50;99.90;;;;;;5037577;28;20048;-74
2022/09/12 02:34:19;;;;;;;1.17;0.63;;;10.50;99.90;;;;;;5029806;28;20068;-74
2022/09/12 02:37:02;;;;;;;;;;;10.60;99.90;;;;;;5038113;28;20179;-73
2022/09/12 02:39:28;;;;;;;0.28;0.25;;;10.60;99.90;;;;;;5037755;28;19921;-74
2022/09/12 02:41:58;;;;;;;1.13;0.73;;;10.70;99.90;;;;;;5037544;28;20053;-74
2022/09/12 02:44:26;;;;;;;1.23;0.38;;;10.70;99.90;;;;;;5037851;28;20056;-73
2022/09/12 02:47:30;;;;;;;0.68;0.68;;;10.80;99.90;;;;;;5037700;28;20495;-74
2022/09/12 02:49:57;;;;;;;1.08;0.52;;;10.90;99.90;;;;;;4971585;28;20135;-74
2022/09/12 02:52:23;;;;;;;0.10;0.10;;;10.90;99.90;;;;;;5038345;28;20045;-74
2022/09/12 02:54:49;;;;;;;0.40;0.40;;;11.00;99.90;;;;;;5037528;28;20041;-74
2022/09/12 02:57:20;;;;;;;0.50;0.43;;;11.10;99.90;;;;;;5038648;28;20057;-74
2022/09/12 02:59:47;;;;;;;1.27;0.95;;;11.20;99.90;;;;;;5038433;28;20088;-74
2022/09/12 03:02:31;;;;;;;0.40;0.35;;;11.20;99.90;;;;;;5019774;28;20532;-74
2022/09/12 03:05:17;;;;;;;0.35;0.35;;;11.20;99.90;;;;;;5037544;28;20107;-73
2022/09/12 03:08:30;;;;;;;0.22;0.22;;;11.20;99.90;;;;;;5039332;28;20551;-74
2022/09/12 03:11:41;;;;;;;1.35;0.65;;;11.20;99.90;;;;;;5037375;28;20155;-74
2022/09/12 03:14:34;;;;;;;0.28;0.28;;;11.20;99.90;;;;;;5037844;28;20128;-73
2022/09/12 03:17:27;;;;;;;2.28;1.45;;;11.30;99.90;;;;;;5027569;28;20132;-74
2022/09/12 03:20:09;;;;;;;2.25;1.60;;;11.30;99.90;;;;;;5038076;28;20037;-73
2022/09/12 03:22:52;;;;;;;1.15;1.00;;;11.30;99.90;;;;;;5037934;28;20060;-73
2022/09/12 03:25:33;;;;;;;4.13;0.85;;;11.40;99.90;;;;;;5021267;28;20045;-74
2022/09/12 03:28:08;;;;;;;1.70;1.45;;;11.40;99.90;;;;;;5037283;28;20049;-74
2022/09/12 03:30:42;;;;;;;1.88;1.20;;;11.50;99.90;;;;;;5036909;28;20052;-74
2022/09/12 03:33:12;;;;;;;3.47;2.50;;;11.50;99.90;;;;;;5035931;28;20099;-74
2022/09/12 03:35:38;;;;;;;1.10;0.88;;;11.70;99.90;;;;;;5037014;28;20115;-74
2022/09/12 03:38:06;;;;;;;5.18;2.20;;;11.70;99.90;;;;;;5036945;28;20491;-73
2022/09/12 03:40:33;;;;;;;1.65;1.55;;;11.70;99.90;;;;;;5036989;28;20407;-74
2022/09/12 03:42:58;;;;;;;6.10;3.00;;;11.80;99.90;;;;;;5037271;28;20045;-73
2022/09/12 03:45:24;;;;;;;1.45;1.13;;;11.90;99.90;;;;;;5037439;28;20119;-74
2022/09/12 03:47:49;;;;;;;1.70;1.05;;;11.90;99.90;;;;;;5037314;28;20082;-74
2022/09/12 03:50:15;;;;;;;2.65;1.98;;;11.90;99.90;;;;;;5037150;28;20488;-74
2022/09/12 03:52:41;;;;;;;4.80;2.00;;;11.80;99.90;;;;;;5036998;28;20072;-74
2022/09/12 03:55:06;;;;;;;1.67;1.23;;;11.80;99.90;;;;;;5037624;28;20038;-74
2022/09/12 03:57:32;;;;;;;2.22;1.55;;;11.80;99.90;;;;;;5036945;28;20450;-74
2022/09/12 03:59:58;;;;;;;2.00;1.58;;;11.80;99.90;;;;;;5036486;28;20059;-74
2022/09/12 04:02:23;;;;;;;0.73;0.73;;;11.80;99.90;;;;;;5036783;28;20048;-73
2022/09/12 04:04:49;;;;;;;3.88;1.95;;;11.80;99.90;;;;;;5037953;28;20037;-74
2022/09/12 04:07:15;;;;;;;1.85;1.33;;;11.70;99.90;;;;;;5036940;28;20049;-74
2022/09/12 04:09:41;;;;;;;2.53;1.08;;;11.80;99.90;;;;;;5036758;28;20064;-74
2022/09/12 04:12:07;;;;;;;3.00;1.45;;;11.80;99.90;;;;;;5036194;28;20042;-74
2022/09/12 04:14:33;;;;;;;1.17;1.08;;;11.80;99.90;;;;;;5037179;28;20041;-74
2022/09/12 04:16:59;;;;;;;2.08;1.80;;;11.70;99.90;;;;;;5037880;28;20038;-74
2022/09/12 04:19:26;;;;;;;0.68;0.60;;;11.70;99.90;;;;;;5037071;28;20113;-74
2022/09/12 04:21:51;;;;;;;2.50;1.00;;;11.60;99.90;;;;;;5036842;28;20038;-74
2022/09/12 04:24:17;;;;;;;1.27;1.17;;;11.60;99.90;;;;;;5037101;28;20106;-74
2022/09/12 04:26:43;;;;;;;2.88;1.42;;;11.60;99.90;;;;;;5037234;28;20041;-74
2022/09/12 04:29:13;;;;;;;0.93;0.68;;;11.50;99.90;;;;;;5037176;28;20491;-74
2022/09/12 04:31:40;;;;;;;2.17;1.92;;;11.50;99.90;;;;;;5019127;28;20059;-73
2022/09/12 04:34:05;;;;;;;0.98;0.47;;;11.50;99.90;;;;;;5036362;28;20048;-73
2022/09/12 04:36:33;;;;;;;1.88;1.23;;;11.40;99.90;;;;;;5035733;28;20041;-73
2022/09/12 04:39:00;;;;;;;0.10;0.10;;;11.40;99.90;;;;;;5035868;28;20124;-73
2022/09/12 04:41:29;;;;;;;1.33;1.23;;;11.40;99.90;;;;;;5035776;28;20558;-74
2022/09/12 04:43:57;;;;;;;1.02;0.82;;;11.50;99.90;;;;;;5036828;28;20041;-74
2022/09/12 04:46:24;;;;;;;3.13;2.67;;;11.50;99.90;;;;;;5036632;28;20041;-73
2022/09/12 04:48:50;;;;;;;4.45;1.35;;;11.50;99.90;;;;;;5019305;28;20050;-73
2022/09/12 04:51:21;;;;;;;1.08;0.85;;;11.50;99.90;;;;;;5036990;28;20041;-73
2022/09/12 04:53:49;;;;;;;4.13;1.88;;;11.50;99.90;;;;;;5036332;28;20077;-73
2022/09/12 04:56:15;;;;;;;0.98;0.88;;;11.60;99.90;;;;;;5036428;28;20099;-73
2022/09/12 04:58:41;;;;;;;2.65;2.40;;;11.60;99.90;;;;;;5035906;28;20555;-74
2022/09/12 05:01:11;;;;;;;1.60;0.68;;;11.70;99.90;;;;;;5036172;28;20049;-73
2022/09/12 05:03:38;;;;;;;1.05;0.73;;;11.70;99.90;;;;;;5036921;28;20051;-73
2022/09/12 05:06:08;;;;;;;1.60;1.02;;;11.80;99.90;;;;;;5036523;28;20045;-73
2022/09/12 05:08:34;;;;;;;0.35;0.25;;;11.90;99.90;;;;;;5036384;28;20080;-74
2022/09/12 05:11:05;;;;;;;2.05;1.88;;;11.90;99.90;;;;;;5035139;28;20514;-74
2022/09/12 05:13:32;;;;;;;3.72;1.40;;;12.90;99.90;;;;;;5036301;28;20515;-74
2022/09/12 05:16:00;;;;;;;1.13;0.85;;;12.20;99.90;;;;;;5036134;28;20073;-73
2022/09/12 05:18:27;;;;;;;1.10;0.57;;;12.30;99.90;;;;;;5035365;28;20048;-73
2022/09/12 05:20:53;;;;;;;1.58;1.35;;;12.40;99.90;;;;;;5035470;28;20105;-73
2022/09/12 05:23:19;;;;;;;1.33;0.85;;;12.50;99.90;;;;;;5035330;28;20033;-74
2022/09/12 05:25:50;;;;;;;2.42;1.70;;;12.60;99.90;;;;;;5038189;28;20048;-74
2022/09/12 05:28:16;;;;;;;1.55;1.17;;;12.70;99.90;;;;;;5039918;28;20045;-74
2022/09/12 05:30:41;;;;;;;1.38;1.27;;;12.80;99.90;;;;;;5039480;28;20049;-74
2022/09/12 05:33:07;;;;;;;2.42;2.15;;;12.80;99.90;;;;;;5039413;28;20049;-73
2022/09/12 05:35:33;;;;;;;5.13;1.75;;;12.90;99.90;;;;;;5038528;28;20049;-73
2022/09/12 05:37:58;;;;;;;2.30;1.90;;;13.00;99.90;;;;;;5038143;28;20041;-73
2022/09/12 05:40:24;;;;;;;3.45;1.60;;;13.00;99.90;;;;;;5039056;28;20595;-74
2022/09/12 05:42:49;;;;;;;3.35;2.53;;;13.10;99.90;;;;;;5039128;28;20042;-74
2022/09/12 05:45:15;;;;;;;6.07;2.83;;;13.10;99.90;;;;;;5038704;28;20084;-73
2022/09/12 05:47:42;;;;;;;4.22;2.25;;;13.20;99.90;;;;;;5038782;28;20053;-73
2022/09/12 05:50:09;;;;;;;6.72;2.65;;;13.20;99.90;;;;;;5038345;28;20124;-73
2022/09/12 05:52:36;;;;;;;2.53;1.65;;;13.30;99.90;;;;;;5038657;28;20080;-73
2022/09/12 05:55:02;;;;;;;4.70;2.00;;;13.30;99.90;;;;;;5038368;28;20044;-73
2022/09/12 05:57:28;;;;;;;3.42;1.38;;;13.50;99.90;;;;;;5037442;28;20060;-74
2022/09/12 05:59:53;;;;;;;1.58;1.48;;;13.40;99.90;;;;;;5037700;28;20045;-73
2022/09/12 06:02:19;;;;;;;2.05;1.55;;;13.40;99.90;;;;;;5038115;28;20419;-73
2022/09/12 06:04:45;;;;;;;2.83;1.85;;;13.40;99.90;;;;;;5020133;28;20045;-74
2022/09/12 06:07:10;;;;;;;3.25;2.28;;;13.40;99.90;;;;;;5037590;28;20038;-74
2022/09/12 06:09:36;;;;;;;3.67;2.58;;;13.40;99.90;;;;;;5037800;28;20049;-73
2022/09/12 06:12:02;;;;;;;5.72;2.58;;;13.40;99.90;;;;;;5038254;28;20037;-73
2022/09/12 06:14:28;;;;;;;3.30;2.60;;;13.50;99.90;;;;;;5038031;28;20396;-74
2022/09/12 06:16:54;;;;;;;3.83;2.75;;;13.50;99.90;;;;;;5037859;28;20037;-73
2022/09/12 06:19:21;;;;;;;2.45;2.00;;;13.50;99.90;;;;;;5037889;28;20097;-73
2022/09/12 06:21:48;;;;;;;3.08;2.42;;;13.50;99.90;;;;;;5037213;28;20045;-74
2022/09/12 06:24:18;;;;;;;3.22;2.08;;;13.60;99.90;;;;;;5037291;28;20068;-74
2022/09/12 06:26:44;;;;;;;13.63;2.58;;;13.60;99.90;;;;;;5037037;28;20152;-74
2022/09/12 06:29:10;;;;;;;7.10;3.42;;;13.70;99.90;;;;;;5037430;28;20513;-73
2022/09/12 06:31:39;;;;;;;5.10;2.90;;;13.80;99.90;;;;;;5036772;28;20042;-74
2022/09/12 06:34:06;;;;;;;2.50;1.75;;;13.80;99.90;;;;;;5037083;28;20041;-74
2022/09/12 06:36:36;;;;;;;3.90;2.67;;;14.00;99.90;;;;;;5036487;28;20120;-74
2022/09/12 06:39:09;;;;;;;2.03;1.58;;;14.00;99.90;;;;;;5036124;28;20049;-74
2022/09/12 06:41:35;;;;;;;3.28;2.58;;;14.10;99.90;;;;;;5036912;28;20045;-74
2022/09/12 06:44:01;;;;;;;5.70;2.38;;;14.10;99.90;;;;;;5036437;28;20053;-74
2022/09/12 06:46:27;;;;;;;10.23;4.60;;;14.20;99.90;;;;;;5036959;28;20042;-74
2022/09/12 06:48:56;;;;;;;1.83;1.73;;;14.20;99.90;;;;;;5036214;28;20072;-74
2022/09/12 06:51:21;;;;;;;4.63;3.05;;;14.20;99.90;;;;;;5036850;28;20037;-74
2022/09/12 06:53:48;;;;;;;5.07;2.45;;;14.20;99.90;;;;;;5036291;28;20090;-73
2022/09/12 06:56:16;;;;;;;7.00;4.40;;;14.30;99.90;;;;;;5035564;28;20094;-74
2022/09/12 06:58:42;;;;;;;2.33;2.10;;;14.30;99.90;;;;;;5035915;28;20049;-74
2022/09/12 07:01:20;;;;;;;7.40;3.60;;;14.30;99.90;;;;;;5036037;28;20053;-74
2022/09/12 07:03:54;;;;;;;2.97;2.67;;;14.30;99.90;;;;;;5035931;28;20045;-74
2022/09/12 07:06:23;;;;;;;6.82;2.80;;;14.40;99.90;;;;;;5035994;28;20072;-74
2022/09/12 07:08:49;;;;;;;2.65;2.45;;;14.40;99.90;;;;;;5035794;28;20405;-74
2022/09/12 07:11:17;;;;;;;3.03;2.72;;;14.40;99.90;;;;;;5035475;28;20125;-74
2022/09/12 07:13:45;;;;;;;7.07;3.75;;;14.50;99.90;;;;;;5035744;28;20049;-73
2022/09/12 07:16:11;;;;;;;1.83;1.67;;;14.50;99.90;;;;;;5035183;28;20389;-73
2022/09/12 07:18:38;;;;;;;6.50;3.17;;;14.50;99.90;;;;;;5035895;28;20562;-73
2022/09/12 07:21:05;;;;;;;4.55;2.90;;;14.50;99.90;;;;;;5035527;28;20037;-73
2022/09/12 07:23:31;;;;;;;7.15;3.35;;;14.60;99.90;;;;;;5035846;28;20048;-73
2022/09/12 07:25:59;;;;;;;5.93;2.97;;;14.60;99.90;;;;;;5035565;28;20045;-74
2022/09/12 07:28:34;;;;;;;4.07;3.05;;;14.70;99.90;;;;;;5035647;28;20045;-73
2022/09/12 07:31:15;;;;;;;9.27;4.70;;;14.90;99.90;;;;;;5035115;28;20138;-73
2022/09/12 07:33:41;;;;;;;5.93;5.32;;;14.90;99.90;;;;;;5035574;28;20100;-73
2022/09/12 07:36:11;;;;;;;5.00;3.03;;;15.10;99.90;;;;;;5035879;28;20048;-74
2022/09/12 07:38:40;;;;;;;7.43;2.83;;;15.10;99.90;;;;;;5034742;28;20055;-73
2022/09/12 07:41:17;;;;;;;4.85;2.63;;;15.20;99.90;;;;;;5034571;28;20948;-73
2022/09/12 07:43:43;;;;;;;5.15;3.13;;;15.40;99.90;;;;;;5034873;28;20053;-74
2022/09/12 07:46:09;;;;;;;3.38;3.08;;;15.50;99.90;;;;;;5035360;28;20091;-73
2022/09/12 07:48:35;;;;;;;3.05;2.78;;;15.60;99.90;;;;;;5034892;28;20088;-73
2022/09/12 07:51:03;;;;;;;6.50;2.45;;;15.70;99.90;;;;;;5035074;28;20049;-74
2022/09/12 07:53:37;;;;;;;6.32;3.78;;;15.80;99.90;;;;;;5035437;28;20072;-74
2022/09/12 07:56:04;;;;;;;7.20;2.85;;;15.90;99.90;;;;;;5034737;28;20539;-74
2022/09/12 07:58:31;;;;;;;4.05;2.55;;;16.00;99.90;;;;;;5034536;28;20053;-73
2022/09/12 08:01:12;;;;;;;4.57;3.33;;;16.10;99.90;;;;;;5035560;28;20099;-73
2022/09/12 08:03:38;;;;;;;2.33;1.58;;;16.00;99.90;;;;;;5034485;28;20052;-74
2022/09/12 08:06:10;;;;;;;5.20;2.80;;;16.10;99.90;;;;;;5017033;28;20115;-74
2022/09/12 08:08:36;;;;;;;3.00;1.40;;;16.10;99.90;;;;;;5033890;28;20124;-74
2022/09/12 08:11:04;;;;;;;4.50;2.28;;;16.10;99.90;;;;;;5034262;28;20131;-74
2022/09/12 08:13:31;;;;;;;1.70;1.20;;;16.20;99.90;;;;;;5033976;28;20034;-74
2022/09/12 08:15:59;;;;;;;2.85;1.77;;;16.40;99.90;;;;;;5033878;28;20068;-73
2022/09/12 08:18:28;;;;;;;9.95;2.42;;;16.40;99.90;;;;;;5034267;28;20045;-74
2022/09/12 08:21:01;;;;;;;5.82;2.35;;;16.60;99.90;;;;;;5034254;28;20164;-74
2022/09/12 08:23:27;;;;;;;1.60;1.45;;;16.60;99.90;;;;;;5034632;28;20045;-74
2022/09/12 08:25:56;;;;;;;4.22;2.05;;;16.80;99.90;;;;;;5034232;28;20518;-73
2022/09/12 08:28:24;;;;;;;2.20;1.77;;;16.90;99.90;;;;;;5034788;28;20052;-73
2022/09/12 08:30:50;;;;;;;5.82;3.63;;;17.00;99.90;;;;;;5034081;28;20045;-73
2022/09/12 08:33:16;;;;;;;6.97;3.33;;;17.20;99.90;;;;;;5033836;28;20041;-73
2022/09/12 08:35:41;;;;;;;3.70;2.25;;;17.30;99.90;;;;;;5034573;28;20033;-73
2022/09/12 08:38:07;;;;;;;2.60;1.92;;;17.40;99.90;;;;;;5034548;28;20443;-73
2022/09/12 08:41:01;;;;;;;1.60;1.23;;;17.60;99.90;;;;;;5034582;28;20116;-74
2022/09/12 08:43:48;;;;;;;1.95;1.55;;;17.70;99.90;;;;;;5024328;28;20046;-73
2022/09/12 08:46:33;;;;;;;1.55;1.33;;;17.70;99.90;;;;;;5035208;28;20049;-73
2022/09/12 08:49:01;;;;;;;4.43;2.33;;;17.90;99.90;;;;;;5034772;28;20056;-73
2022/09/12 08:51:28;;;;;;;2.50;1.98;;;18.00;99.90;;;;;;5035017;28;20046;-74
2022/09/12 08:53:55;;;;;;;2.00;1.65;;;18.20;99.90;;;;;;5034977;28;20052;-73
2022/09/12 08:56:23;;;;;;;0.93;0.85;;;18.30;99.90;;;;;;5035098;28;20052;-74
2022/09/12 08:58:48;;;;;;;3.20;2.40;;;18.60;99.90;;;;;;5036246;28;20090;-74
2022/09/12 09:01:23;;;;;;;2.80;1.70;;;18.70;99.90;;;;;;5039512;28;20144;-74
2022/09/12 09:04:12;;;;;;;4.38;2.05;;;18.80;99.90;;;;;;5038278;28;20044;-73
2022/09/12 09:07:05;;;;;;;2.83;1.70;;;18.90;99.90;;;;;;5038087;28;20499;-73
2022/09/12 09:10:12;;;;;;;6.45;1.55;;;18.80;99.90;;;;;;5038913;28;20048;-73
2022/09/12 09:12:59;;;;;;;2.20;1.70;;;18.90;99.90;;;;;;5038665;28;20041;-72
2022/09/12 09:15:59;;;;;;;3.33;2.22;;;19.10;99.90;;;;;;5038158;28;20086;-73
2022/09/12 09:18:32;;;;;;;1.73;1.33;;;19.20;99.90;;;;;;5038546;28;20523;-73
2022/09/12 09:21:17;;;;;;;3.00;2.20;;;19.40;99.90;;;;;;5038794;28;20400;-73
2022/09/12 09:23:47;;;;;;;1.65;1.27;;;19.50;99.90;;;;;;5038813;28;20042;-73
2022/09/12 09:26:26;;;;;;;1.35;1.25;;;20.10;99.90;;;;;;5037825;28;20419;-73
2022/09/12 09:29:09;;;;;;;6.28;2.25;;;20.40;99.90;;;;;;5038187;28;20083;-73
2022/09/12 09:31:38;;;;;;;4.28;2.78;;;20.80;99.90;;;;;;5038102;28;20092;-73
2022/09/12 09:34:14;;;;;;;6.13;2.25;;;20.90;99.90;;;;;;5038807;28;20117;-74
2022/09/12 09:36:42;;;;;;;;;;;21.00;99.90;;;;;;5039348;28;20067;-74
2022/09/12 09:39:29;;;;;;;3.90;2.72;;;21.00;99.90;;;;;;5037581;28;19921;-74
2022/09/12 09:42:31;;;;;;;4.32;2.65;;;21.10;99.90;;;;;;5037177;28;20045;-73
2022/09/12 09:45:01;;;;;;;6.13;2.90;;;21.30;99.90;;;;;;5024952;28;20057;-73
2022/09/12 09:47:27;;;;;;;3.80;2.53;;;21.20;99.90;;;;;;5038213;28;20081;-73
2022/09/12 09:49:52;;;;;;;5.88;3.05;;;21.40;99.90;;;;;;5037315;28;20069;-73
2022/09/12 09:52:27;;;;;;;4.72;2.92;;;21.50;99.90;;;;;;5037208;28;20041;-73
2022/09/12 09:54:59;;;;;;;1.92;1.67;;;21.40;99.90;;;;;;5037092;28;20045;-74
2022/09/12 09:57:33;;;;;;;9.38;4.13;;;21.40;99.90;;;;;;5036568;28;20053;-73
2022/09/12 10:00:25;;;;;;;2.40;2.08;;;21.40;99.90;;;;;;5037506;28;20056;-73
2022/09/12 10:03:09;;;;;;;5.28;3.38;;;21.40;99.90;;;;;;5036782;28;20051;-74
2022/09/12 10:05:47;;;;;;;3.45;2.90;;;21.50;99.90;;;;;;5036715;28;20063;-73
2022/09/12 10:08:26;;;;;;;5.18;2.95;;;21.70;99.90;;;;;;5036266;28;20096;-74
2022/09/12 10:10:56;;;;;;;7.68;3.63;;;21.90;99.90;;;;;;5035773;28;20106;-73
2022/09/12 10:13:38;;;;;;;16.05;3.58;;;22.20;99.90;;;;;;5036248;28;20495;-74
2022/09/12 10:16:16;;;;;;;3.92;3.33;;;22.40;99.90;;;;;;5036062;28;20054;-74
2022/09/12 10:18:41;;;;;;;4.57;2.85;;;22.30;99.90;;;;;;5036101;28;20452;-74
2022/09/12 10:21:19;;;;;;;7.40;3.42;;;22.50;99.90;;;;;;5035776;28;20099;-74
2022/09/12 10:23:46;;;;;;;4.57;3.15;;;22.60;99.90;;;;;;5018190;28;20049;-74
2022/09/12 10:26:15;;;;;;;3.80;2.15;;;22.80;99.90;;;;;;5035408;28;20056;-74
2022/09/12 10:28:48;;;;;;;6.00;3.63;;;22.90;99.90;;;;;;5035585;28;20045;-73
2022/09/12 10:31:28;;;;;;;6.68;3.17;;;23.10;99.90;;;;;;5035560;28;20080;-73
2022/09/12 10:33:57;;;;;;;2.60;1.98;;;23.20;99.90;;;;;;5018677;28;20050;-74
2022/09/12 10:36:24;;;;;;;4.50;2.47;;;23.40;99.90;;;;;;5035200;28;20049;-73
2022/09/12 10:38:56;;;;;;;10.88;3.63;;;23.60;99.90;;;;;;5035308;28;20045;-74
2022/09/12 10:41:22;;;;;;;5.75;2.75;;;23.50;99.90;;;;;;5035521;28;20124;-74
2022/09/12 10:43:48;;;;;;;8.50;1.58;;;23.50;99.90;;;;;;5035626;28;20465;-74
2022/09/12 10:46:16;;;;;;;5.30;3.03;;;23.40;99.90;;;;;;5035673;28;20105;-73
2022/09/12 10:48:44;;;;;;;8.95;4.00;;;23.40;99.90;;;;;;5034962;28;20045;-73
2022/09/12 10:51:26;;;;;;;6.88;2.28;;;23.40;99.90;;;;;;5034863;28;20117;-74
2022/09/12 10:54:01;;;;;;;2.45;2.00;;;23.40;99.90;;;;;;5034831;28;20109;-74
2022/09/12 10:56:31;;;;;;;2.08;1.38;;;23.60;99.90;;;;;;5034655;28;20088;-74
2022/09/12 10:59:15;;;;;;;2.50;1.88;;;23.70;99.90;;;;;;5017186;28;20057;-74
2022/09/12 11:01:50;;;;;;;7.20;3.28;;;23.90;99.90;;;;;;5034870;28;20041;-75
2022/09/12 11:04:53;;;;;;;1.85;1.73;;;23.70;99.90;;;;;;5034596;28;20037;-74
2022/09/12 11:07:48;;;;;;;1.45;1.20;;;23.80;99.90;;;;;;5034320;28;20080;-74
2022/09/12 11:10:16;;;;;;;3.27;1.93;;;23.90;99.90;;;;;;5034551;28;20404;-74
2022/09/12 11:13:13;;;;;;;5.53;2.13;;;24.10;96.80;;;;;;5034612;28;20287;-74
2022/09/12 11:16:00;;;;;;;1.83;1.63;;;24.10;99.90;;;;;;5034109;28;20049;-73
2022/09/12 11:18:42;;;;;;;2.13;1.60;;;24.10;99.90;;;;;;5034222;28;20084;-73
2022/09/12 11:21:31;;;;;;;4.28;2.28;;;24.40;94.50;;;;;;5034208;28;20049;-74
2022/09/12 11:24:24;;;;;;;2.17;1.92;;;24.60;96.60;;;;;;5033863;28;20046;-74
2022/09/12 11:27:06;;;;;;;3.08;2.05;;;25.00;93.60;;;;;;5034169;28;20056;-73
2022/09/12 11:29:48;;;;;;;4.55;2.78;;;25.40;79.40;;;;;;5033939;28;20053;-74
2022/09/12 11:32:41;;;;;;;3.13;1.65;;;25.50;76.30;;;;;;5033835;28;20049;-75
2022/09/12 11:35:14;;;;;;;2.90;1.92;;;25.70;70.90;;;;;;5033907;28;20500;-75
2022/09/12 11:37:56;;;;;;;1.30;1.00;;;25.70;67.00;;;;;;5034363;28;20045;-74
2022/09/12 11:40:38;;;;;;;0.43;0.43;;;26.00;74.00;;;;;;5034295;28;20411;-74
2022/09/12 11:43:41;;;;;;;3.10;1.38;;;26.40;60.20;;;;;;5034498;28;20049;-74
2022/09/12 11:46:26;;;;;;;1.00;0.65;;;26.70;66.30;;;;;;4968397;28;20057;-73
2022/09/12 11:49:12;;;;;;;4.00;0.63;;;27.00;53.40;;;;;;5034135;28;20041;-74
2022/09/12 11:51:44;;;;;;;1.58;0.93;;;27.00;42.60;;;;;;5034450;28;20048;-74
2022/09/12 11:54:21;;;;;;;4.53;1.60;;;26.80;30.50;;;;;;5034370;28;20526;-74
2022/09/12 11:56:54;;;;;;;1.42;1.25;;;26.80;42.60;;;;;;5034208;28;20468;-74
2022/09/12 11:59:31;;;;;;;3.30;0.95;;;26.90;26.00;;;;;;5034199;28;20407;-74
2022/09/12 12:01:59;;;;;;;3.33;1.85;;;27.10;40.90;;;;;;5034446;28;20160;-74
2022/09/12 12:04:35;;;;;;;7.45;1.58;;;27.10;36.10;;;;;;5034127;28;20125;-73
2022/09/12 12:07:06;;;;;;;1.52;1.05;;;26.70;37.60;;;;;;5034464;28;20045;-73
2022/09/12 12:09:32;;;;;;;0.52;0.50;;;26.60;23.10;;;;;;5034098;28;20415;-74
2022/09/12 12:12:03;;;;;;;1.48;1.27;;;26.70;29.80;;;;;;5034018;28;20124;-74
2022/09/12 12:14:32;;;;;;;1.83;1.42;;;26.60;19.30;;;;;;5034097;28;20402;-74
2022/09/12 12:16:58;;;;;;;1.38;1.20;;;26.50;22.80;;;;;;5034021;28;20081;-74
2022/09/12 12:19:33;;;;;;;2.53;1.27;;;26.10;40.80;;;;;;5034158;28;20049;-74
2022/09/12 12:22:11;;;;;;;1.05;0.95;;;26.40;43.70;;;;;;5033896;28;20076;-73
2022/09/12 12:24:53;;;;;;;1.42;0.77;;;27.20;22.10;;;;;;5033943;28;20041;-74
2022/09/12 12:27:44;;;;;;;1.10;0.98;;;27.40;31.20;;;;;;5034277;28;20112;-73
2022/09/12 12:30:58;;;;;;;2.45;0.95;;;27.60;23.10;;;;;;5033805;28;20045;-74
2022/09/12 12:33:43;;;;;;;1.00;0.70;;;27.70;18.20;;;;;;5026354;28;20406;-74
2022/09/12 12:36:29;;;;;;;1.50;0.80;;;28.00;12.50;;;;;;5032927;28;20377;-74
2022/09/12 12:38:54;;;;;;;1.90;1.33;;;28.10;9.30;;;;;;5032710;28;20049;-73
2022/09/12 12:41:20;;;;;;;1.23;0.88;;;28.00;7.80;;;;;;5032729;28;20034;-73
2022/09/12 12:43:56;;;;;;;1.40;0.93;;;27.90;16.90;;;;;;5032949;28;20049;-74
2022/09/12 12:46:24;;;;;;;1.25;0.90;;;28.40;8.20;;;;;;5033025;28;20049;-74
2022/09/12 12:48:52;;;;;;;0.82;0.63;;;28.70;5.20;;;;;;5032512;28;20133;-74
2022/09/12 12:51:29;;;;;;;2.47;1.38;;;28.90;4.30;;;;;;5032556;28;20082;-74
2022/09/12 12:53:55;;;;;;;1.05;0.70;;;28.90;7.70;;;;;;5014923;28;20141;-74
2022/09/12 12:56:42;;;;;;;1.00;0.65;;;28.50;5.00;;;;;;5032405;28;20033;-74
2022/09/12 12:59:20;;;;;;;0.70;0.55;;;28.00;1.00;;;;;;5032813;28;20092;-74
2022/09/12 13:01:52;;;;;;;0.32;0.32;;;27.70;1.00;;;;;;5032686;28;20519;-73
2022/09/12 13:04:20;;;;;;;1.20;0.88;;;27.80;2.10;;;;;;5032460;28;20037;-74
2022/09/12 13:07:05;;;;;;;1.85;1.42;;;28.00;2.10;;;;;;5032274;28;20500;-74
2022/09/12 13:09:44;;;;;;;10.52;3.30;;;27.50;1.20;;;;;;5032554;28;20044;-74
2022/09/12 13:12:18;;;;;;;0.70;0.57;;;27.50;3.80;;;;;;5032706;28;20049;-74
2022/09/12 13:14:55;;;;;;;1.33;1.13;;;27.30;18.70;;;;;;5032639;28;20049;-74
2022/09/12 13:17:40;;;;;;;1.38;0.75;;;27.90;17.90;;;;;;5032654;28;20041;-75
2022/09/12 13:20:18;;;;;;;0.90;0.73;;;28.10;7.80;;;;;;5014927;28;20053;-75